Time;durP1;ratioP1;P1;durP2;ratioP2;P2;SDS_P1;SDS_P2;PMS_P1;PMS_P2;Temp;Humidity;BMP_temperature;BMP_pressure;BME280_temperature;BME280_humidity;BME280_pressure;Samples;Min_cycle;Max_cycle;Signal;HPM_P1;HPM_P2
2022/06/01 00:01:34;;;;;;;20.93;5.80;;;;;;;38.27;40.69;101122.41;5050271;28;20434;-74
2022/06/01 00:04:00;;;;;;;13.50;7.10;;;;;;;38.25;40.87;101117.25;5050222;28;20442;-74
2022/06/01 00:06:26;;;;;;;9.67;4.83;;;;;;;38.25;40.47;101119.97;5050210;28;20511;-74
2022/06/01 00:08:52;;;;;;;11.20;5.60;;;;;;;38.26;40.40;101128.91;5050329;28;20426;-74
2022/06/01 00:11:19;;;;;;;15.30;5.20;;;;;;;38.27;40.67;101125.09;5050375;28;20446;-74
2022/06/01 00:13:45;;;;;;;23.97;7.70;;;;;;;38.27;40.70;101122.41;5052049;28;20395;-74
2022/06/01 00:16:12;;;;;;;16.70;8.90;;;;;;;38.21;40.50;101131.69;5050356;28;20472;-72
2022/06/01 00:18:38;;;;;;;16.63;7.53;;;;;;;38.11;40.96;101121.84;5050186;28;20430;-73
2022/06/01 00:21:07;;;;;;;21.33;7.60;;;;;;;38.11;41.06;101121.84;5050116;28;20418;-73
2022/06/01 00:23:33;;;;;;;15.10;8.53;;;;;;;38.10;41.33;101114.84;5050043;28;20525;-72
2022/06/01 00:25:59;;;;;;;26.57;8.93;;;;;;;38.13;41.17;101104.22;5033552;28;20490;-74
2022/06/01 00:28:25;;;;;;;12.10;7.83;;;;;;;38.10;41.15;101093.97;5033511;28;20920;-72
2022/06/01 00:30:51;;;;;;;18.77;7.10;;;;;;;38.02;41.48;101091.97;5033496;28;20425;-72
2022/06/01 00:33:17;;;;;;;11.20;6.87;;;;;;;37.95;41.64;101088.06;5049751;28;20470;-74
2022/06/01 00:35:43;;;;;;;13.20;7.40;;;;;;;37.94;41.98;101089.97;5050015;28;20455;-74
2022/06/01 00:38:10;;;;;;;13.57;7.90;;;;;;;37.93;41.76;101080.22;5051367;28;20399;-74
2022/06/01 00:40:36;;;;;;;14.60;8.53;;;;;;;37.85;42.00;101081.72;5051546;28;20476;-74
2022/06/01 00:43:23;;;;;;;22.93;10.23;;;;;;;37.70;42.39;101059.56;5050005;28;20450;-73
2022/06/01 00:45:50;;;;;;;15.27;8.93;;;;;;;37.68;42.18;101061.72;5052085;28;20496;-73
2022/06/01 00:48:18;;;;;;;14.53;9.47;;;;;;;37.44;42.54;101046.47;5017776;28;20916;-73
2022/06/01 00:50:45;;;;;;;22.00;11.53;;;;;;;37.47;42.63;101043.19;5037114;28;20414;-72
2022/06/01 00:53:16;;;;;;;20.20;10.67;;;;;;;37.46;42.68;101041.56;5037011;28;20410;-74
2022/06/01 00:55:47;;;;;;;18.97;13.47;;;;;;;37.40;42.97;101036.56;5053043;28;20909;-73
2022/06/01 00:58:18;;;;;;;17.93;12.47;;;;;;;37.48;43.02;101033.16;5053280;28;20537;-72
2022/06/01 01:00:46;;;;;;;22.73;14.33;;;;;;;37.55;42.84;101037.06;5053137;28;20497;-72
2022/06/01 01:03:14;;;;;;;20.10;13.27;;;;;;;37.55;42.74;101023.53;5053217;28;20427;-72
2022/06/01 01:05:47;;;;;;;18.87;10.13;;;;;;;37.41;43.30;101019.22;5054395;28;20453;-74
2022/06/01 01:08:13;;;;;;;21.67;11.10;;;;;;;37.44;42.79;101014.00;5054476;28;20394;-74
2022/06/01 01:10:39;;;;;;;17.97;10.87;;;;;;;37.37;43.01;101016.28;5053063;28;20414;-74
2022/06/01 01:13:08;;;;;;;23.73;15.67;;;;;;;37.13;43.55;101009.09;5052895;28;20414;-74
2022/06/01 01:15:52;;;;;;;24.90;14.73;;;;;;;37.12;43.75;101010.19;5052998;28;20407;-74
2022/06/01 01:18:22;;;;;;;19.83;12.20;;;;;;;37.15;44.24;101003.41;5052875;28;20406;-74
2022/06/01 01:20:54;;;;;;;27.93;16.73;;;;;;;37.16;43.99;101012.31;5052942;28;20418;-73
2022/06/01 01:23:37;;;;;;;25.97;16.20;;;;;;;37.08;43.77;101011.13;5052702;28;20803;-74
2022/06/01 01:26:05;;;;;;;23.00;18.50;;;;;;;36.75;45.13;101010.25;5052542;28;20477;-74
2022/06/01 01:28:31;;;;;;;25.57;18.07;;;;;;;36.62;44.87;101008.31;5052620;28;20414;-74
2022/06/01 01:31:06;;;;;;;31.83;18.87;;;;;;;36.85;44.13;101005.50;5052562;28;20419;-73
2022/06/01 01:33:32;;;;;;;36.27;20.67;;;;;;;36.94;44.57;101002.13;5052481;28;20473;-72
2022/06/01 01:36:04;;;;;;;33.17;19.60;;;;;;;36.86;44.14;100993.56;5052697;28;20426;-72
2022/06/01 01:38:56;;;;;;;34.20;19.67;;;;;;;36.97;44.22;100999.66;5052416;28;20443;-74
2022/06/01 01:41:44;;;;;;;32.50;20.10;;;;;;;37.03;44.27;101001.19;5052199;28;20425;-74
2022/06/01 01:44:28;;;;;;;30.13;17.80;;;;;;;37.08;43.81;100990.28;5052490;28;20769;-74
2022/06/01 01:46:56;;;;;;;24.10;18.53;;;;;;;37.12;43.36;100972.34;5052306;28;20470;-72
2022/06/01 01:49:25;;;;;;;40.23;22.27;;;;;;;37.01;43.73;100970.09;5052332;28;20510;-72
2022/06/01 01:51:54;;;;;;;36.30;21.37;;;;;;;36.89;44.32;100965.16;5052164;28;20851;-72
2022/06/01 01:54:38;;;;;;;35.23;21.80;;;;;;;36.91;44.35;100965.69;5053606;28;20888;-72
2022/06/01 01:57:14;;;;;;;35.60;23.17;;;;;;;36.97;44.28;100964.50;5052205;28;20490;-74
2022/06/01 02:00:18;;;;;;;37.10;21.83;;;;;;;37.12;43.96;100966.13;5053408;28;20423;-74
2022/06/01 02:02:53;;;;;;;45.20;30.40;;;;;;;36.83;44.24;100953.63;5014685;28;20430;-74
2022/06/01 02:08:26;;;;;;;36.60;30.30;;;;;;;36.77;44.75;100943.16;5053905;28;20432;-74
2022/06/01 02:13:55;;;;;;;34.70;24.00;;;;;;;36.98;43.65;100939.06;5034187;28;20422;-72
2022/06/01 02:16:24;;;;;;;30.50;22.27;;;;;;;36.87;44.44;100932.22;5035944;28;20426;-73
2022/06/01 02:18:55;;;;;;;33.83;22.60;;;;;;;36.78;44.37;100921.28;5051926;28;20789;-73
2022/06/01 02:21:25;;;;;;;31.70;20.03;;;;;;;36.57;44.95;100920.78;5051985;28;20806;-74
2022/06/01 02:23:53;;;;;;;34.30;21.80;;;;;;;36.31;45.43;100914.97;5052246;28;20446;-74
2022/06/01 02:26:21;;;;;;;35.60;20.20;;;;;;;36.50;45.10;100912.28;5051641;28;20480;-72
2022/06/01 02:28:49;;;;;;;28.30;20.17;;;;;;;36.52;44.67;100911.97;5035223;28;20418;-73
2022/06/01 02:31:17;;;;;;;32.97;19.83;;;;;;;36.56;44.38;100910.28;5051645;28;20418;-73
2022/06/01 02:33:46;;;;;;;32.33;21.57;;;;;;;36.58;45.02;100908.09;5051268;28;20473;-74
2022/06/01 02:36:16;;;;;;;30.17;18.77;;;;;;;36.56;44.59;100905.69;5052077;28;20407;-74
2022/06/01 02:38:48;;;;;;;32.67;21.57;;;;;;;36.40;45.16;100900.81;5051884;28;20543;-74
2022/06/01 02:44:00;;;;;;;35.83;19.50;;;;;;;36.63;44.60;100905.31;5053351;28;20390;-74
2022/06/01 02:46:26;;;;;;;27.53;18.60;;;;;;;36.75;44.21;100896.72;5052086;28;20527;-72
2022/06/01 02:48:52;;;;;;;30.70;18.40;;;;;;;36.77;44.21;100905.34;5051486;28;20418;-72
2022/06/01 02:51:19;;;;;;;26.50;17.70;;;;;;;36.77;44.63;100902.63;5051141;28;20854;-72
2022/06/01 02:53:46;;;;;;;26.43;17.63;;;;;;;36.72;44.55;100900.84;5051141;28;20446;-74
2022/06/01 02:56:13;;;;;;;20.73;15.60;;;;;;;36.79;44.29;100897.75;5051453;28;20476;-74
2022/06/01 02:58:39;;;;;;;28.57;17.10;;;;;;;36.52;44.59;100899.28;5052294;28;20435;-74
2022/06/01 03:01:06;;;;;;;30.10;18.50;;;;;;;36.26;45.21;100893.44;5050788;28;20477;-74
2022/06/01 03:03:33;;;;;;;24.97;18.33;;;;;;;36.40;45.28;100896.25;5050984;28;20426;-74
2022/06/01 03:05:59;;;;;;;37.17;17.27;;;;;;;36.27;45.44;100886.13;5050853;28;20454;-73
2022/06/01 03:08:26;;;;;;;24.47;18.97;;;;;;;35.90;45.93;100898.50;5050806;28;20453;-74
2022/06/01 03:10:53;;;;;;;21.30;15.60;;;;;;;35.94;46.28;100890.69;5050941;28;20437;-72
2022/06/01 03:13:23;;;;;;;29.53;18.67;;;;;;;35.97;46.44;100898.19;5050317;28;20431;-72
2022/06/01 03:15:51;;;;;;;30.73;18.33;;;;;;;36.11;46.11;100900.97;5051832;28;20406;-73
2022/06/01 03:18:17;;;;;;;30.07;18.53;;;;;;;36.30;45.55;100910.66;5050203;28;20500;-74
2022/06/01 03:20:44;;;;;;;24.47;16.83;;;;;;;36.49;45.39;100916.06;5050650;28;20875;-73
2022/06/01 03:23:10;;;;;;;26.03;17.13;;;;;;;36.35;45.57;100923.31;5050555;28;20450;-73
2022/06/01 03:25:37;;;;;;;22.43;17.30;;;;;;;36.40;44.98;100917.84;5050900;28;20458;-74
2022/06/01 03:28:06;;;;;;;22.63;16.73;;;;;;;36.25;45.52;100924.25;5051255;28;20418;-73
2022/06/01 03:30:33;;;;;;;21.20;13.07;;;;;;;36.37;45.11;100928.41;5052799;28;20395;-72
2022/06/01 03:32:59;;;;;;;26.23;16.23;;;;;;;36.59;44.65;100928.63;5051042;28;20553;-72
2022/06/01 03:35:29;;;;;;;47.07;18.77;;;;;;;36.63;44.69;100928.81;5052992;28;20750;-72
2022/06/01 03:37:57;;;;;;;20.83;13.70;;;;;;;36.47;44.94;100925.59;5051112;28;20472;-72
2022/06/01 03:40:25;;;;;;;21.87;15.57;;;;;;;36.39;45.08;100937.84;5051169;28;20461;-72
2022/06/01 03:42:51;;;;;;;25.47;14.30;;;;;;;36.19;45.46;100947.03;5050915;28;21025;-74
2022/06/01 03:48:02;;;;;;;21.40;14.70;;;;;;;36.32;44.93;100959.78;5052472;28;20444;-74
2022/06/01 03:50:29;;;;;;;21.10;12.97;;;;;;;36.54;44.60;100955.72;5051153;28;20492;-73
2022/06/01 03:52:56;;;;;;;26.13;13.83;;;;;;;36.51;44.66;100953.59;5051093;28;20419;-73
2022/06/01 03:55:22;;;;;;;20.97;13.67;;;;;;;36.44;44.83;100951.28;5051023;28;20407;-74
2022/06/01 03:57:49;;;;;;;22.50;14.73;;;;;;;36.27;45.45;100956.34;5052387;28;20492;-72
2022/06/01 04:00:22;;;;;;;15.33;11.40;;;;;;;36.22;45.19;100961.84;5050973;28;20419;-73
2022/06/01 04:02:49;;;;;;;25.87;14.43;;;;;;;36.04;45.67;100953.44;5051221;28;20497;-73
2022/06/01 04:05:15;;;;;;;29.70;13.47;;;;;;;35.99;45.71;100952.72;5051605;28;20762;-74
2022/06/01 04:07:41;;;;;;;19.17;12.93;;;;;;;36.12;45.52;100951.19;5050289;28;20912;-75
2022/06/01 04:10:08;;;;;;;22.23;12.50;;;;;;;35.95;45.88;100948.97;5050162;28;20506;-74
2022/06/01 04:12:35;;;;;;;18.60;11.43;;;;;;;35.96;45.84;100945.16;5050304;28;20484;-73
2022/06/01 04:15:02;;;;;;;17.60;14.40;;;;;;;36.11;45.15;100947.69;5050230;28;20434;-73
2022/06/01 04:17:28;;;;;;;17.40;12.03;;;;;;;35.93;46.30;100951.16;5033677;28;20807;-74
2022/06/01 04:19:54;;;;;;;19.20;13.00;;;;;;;35.91;46.23;100947.91;5050277;28;20422;-74
2022/06/01 04:22:21;;;;;;;21.70;14.03;;;;;;;36.19;45.67;100948.91;5049992;28;20457;-74
2022/06/01 04:24:47;;;;;;;24.43;14.40;;;;;;;36.20;45.38;100943.22;5052086;28;20440;-73
2022/06/01 04:27:13;;;;;;;21.60;14.53;;;;;;;36.17;45.60;100941.13;5053855;28;20500;-72
2022/06/01 04:29:42;;;;;;;30.13;14.70;;;;;;;36.25;44.88;100950.44;5053863;28;20426;-74
2022/06/01 04:32:13;;;;;;;21.70;12.17;;;;;;;36.29;45.36;100954.97;5054082;28;20432;-74
2022/06/01 04:34:39;;;;;;;34.50;17.33;;;;;;;36.34;44.87;100948.72;5053553;28;20569;-74
2022/06/01 04:37:06;;;;;;;32.43;18.53;;;;;;;36.13;45.58;100952.78;5054009;28;20970;-74
2022/06/01 04:39:32;;;;;;;22.93;15.77;;;;;;;36.14;45.64;100951.69;5054946;28;20430;-74
2022/06/01 04:41:58;;;;;;;25.87;14.50;;;;;;;36.22;45.18;100948.34;5054997;28;20415;-74
2022/06/01 04:44:24;;;;;;;17.57;12.00;;;;;;;36.14;45.33;100959.78;5053742;28;20528;-74
2022/06/01 04:46:50;;;;;;;23.73;14.73;;;;;;;36.32;44.92;100953.59;5054743;28;20444;-75
2022/06/01 04:49:16;;;;;;;19.80;12.93;;;;;;;36.55;44.49;100950.03;5053446;28;20485;-73
2022/06/01 04:51:43;;;;;;;16.73;10.57;;;;;;;36.30;45.06;100950.38;5054777;28;20464;-75
2022/06/01 04:54:09;;;;;;;18.73;12.43;;;;;;;35.86;46.18;100945.28;5053408;28;20426;-74
2022/06/01 04:56:35;;;;;;;20.57;13.63;;;;;;;35.38;47.40;100945.28;5054508;28;20439;-74
2022/06/01 04:59:01;;;;;;;22.63;13.80;;;;;;;35.68;46.90;100938.78;5053285;28;20419;-74
2022/06/01 05:01:27;;;;;;;18.23;13.43;;;;;;;35.59;47.12;100935.09;5053982;28;20445;-74
2022/06/01 05:03:53;;;;;;;22.50;13.90;;;;;;;35.57;47.30;100940.78;5053781;28;20972;-74
2022/06/01 05:06:20;;;;;;;22.70;13.00;;;;;;;35.65;46.58;100936.63;5053636;28;20466;-75
2022/06/01 05:08:46;;;;;;;24.43;13.20;;;;;;;35.74;46.81;100938.41;5053756;28;20419;-73
2022/06/01 05:11:12;;;;;;;27.93;15.17;;;;;;;35.95;45.84;100944.38;5053629;28;20443;-73
2022/06/01 05:13:38;;;;;;;15.57;12.50;;;;;;;35.51;46.84;100947.31;5053603;28;20410;-73
2022/06/01 05:16:06;;;;;;;15.97;10.87;;;;;;;35.29;47.34;100947.78;5054759;28;20430;-74
2022/06/01 05:18:33;;;;;;;23.80;13.17;;;;;;;35.40;47.59;100943.91;5053604;28;20473;-73
2022/06/01 05:20:59;;;;;;;16.90;13.20;;;;;;;35.55;47.01;100939.47;5053832;28;20411;-74
2022/06/01 05:23:26;;;;;;;18.97;13.07;;;;;;;35.53;46.88;100948.63;5053386;28;20434;-75
2022/06/01 05:25:54;;;;;;;22.43;13.17;;;;;;;35.18;47.90;100946.31;5055228;28;20450;-74
2022/06/01 05:28:24;;;;;;;23.17;14.37;;;;;;;35.46;47.66;100941.97;5053448;28;20414;-74
2022/06/01 05:30:50;;;;;;;22.97;14.23;;;;;;;35.32;47.40;100949.13;5053282;28;20419;-74
2022/06/01 05:33:16;;;;;;;23.73;15.30;;;;;;;35.52;47.11;100957.81;5061851;28;20484;-73
2022/06/01 05:35:43;;;;;;;26.63;13.33;;;;;;;35.66;46.89;100957.13;5055403;28;20409;-73
2022/06/01 05:38:09;;;;;;;26.63;15.83;;;;;;;35.68;46.59;100954.97;5055759;28;20409;-73
2022/06/01 05:40:35;;;;;;;22.43;15.03;;;;;;;35.62;46.60;100959.59;5055622;28;20414;-72
2022/06/01 05:43:08;;;;;;;25.80;17.07;;;;;;;35.65;47.02;100952.81;5055616;28;20410;-72
2022/06/01 05:45:34;;;;;;;23.60;14.80;;;;;;;35.90;46.40;100949.81;5055676;28;20541;-74
2022/06/01 05:48:00;;;;;;;23.77;15.03;;;;;;;36.02;46.01;100952.91;5056209;28;20410;-72
2022/06/01 05:50:27;;;;;;;23.57;14.97;;;;;;;35.95;46.11;100957.88;5056964;28;20428;-72
2022/06/01 05:52:53;;;;;;;20.07;13.20;;;;;;;35.82;46.10;100963.16;5074529;28;20420;-72
2022/06/01 05:55:19;;;;;;;27.50;15.10;;;;;;;36.03;45.37;100959.94;5056158;28;20836;-72
2022/06/01 05:57:45;;;;;;;29.30;14.90;;;;;;;35.99;45.52;100961.59;5056002;28;20952;-72
2022/06/01 06:00:16;;;;;;;23.10;14.97;;;;;;;35.76;46.53;100952.41;5055905;28;20406;-72
2022/06/01 06:02:43;;;;;;;25.80;19.03;;;;;;;35.44;47.09;100954.97;5056940;28;20391;-73
2022/06/01 06:07:56;;;;;;;25.10;16.37;;;;;;;35.58;46.66;100949.66;5072928;28;20981;-72
2022/06/01 06:10:23;;;;;;;23.57;16.53;;;;;;;35.37;47.38;100951.78;5060069;28;20930;-72
2022/06/01 06:12:50;;;;;;;19.70;14.10;;;;;;;35.72;46.70;100959.47;5057772;28;20414;-73
2022/06/01 06:15:16;;;;;;;27.17;15.00;;;;;;;35.77;46.38;100955.91;5064697;28;20417;-71
2022/06/01 06:17:43;;;;;;;22.37;14.53;;;;;;;35.62;46.99;100961.50;5063147;28;20483;-73
2022/06/01 06:20:10;;;;;;;21.03;14.77;;;;;;;35.68;47.02;100960.34;5057371;28;20880;-72
2022/06/01 06:22:36;;;;;;;25.67;14.10;;;;;;;35.67;46.81;100967.66;5061139;28;20424;-73
2022/06/01 06:25:03;;;;;;;27.03;17.20;;;;;;;35.84;46.28;100964.47;5064947;28;20531;-72
2022/06/01 06:27:30;;;;;;;30.00;19.57;;;;;;;35.80;46.17;100964.25;5063898;28;20462;-73
2022/06/01 06:29:56;;;;;;;31.03;18.80;;;;;;;35.96;46.38;100966.78;5078895;28;20483;-73
2022/06/01 06:32:24;;;;;;;29.20;18.00;;;;;;;35.99;46.21;100968.91;5064150;28;20409;-73
2022/06/01 06:34:50;;;;;;;25.70;18.13;;;;;;;36.12;45.64;100975.50;5083493;28;20968;-73
2022/06/01 06:37:16;;;;;;;22.63;14.60;;;;;;;36.00;46.42;100981.31;5058662;28;20418;-74
2022/06/01 06:39:42;;;;;;;32.00;20.53;;;;;;;35.93;46.51;100978.97;5055101;28;20425;-72
2022/06/01 06:42:08;;;;;;;25.97;18.70;;;;;;;35.83;46.43;100979.06;5055281;28;20410;-73
2022/06/01 06:44:38;;;;;;;33.70;17.13;;;;;;;35.89;46.44;100975.19;5054954;28;20425;-73
2022/06/01 06:47:05;;;;;;;29.33;17.73;;;;;;;35.84;47.12;100982.56;5053846;28;20480;-73
2022/06/01 06:49:31;;;;;;;29.17;21.10;;;;;;;35.93;46.62;100988.97;5053574;28;20441;-73
2022/06/01 06:51:57;;;;;;;34.20;22.13;;;;;;;35.97;46.76;100990.81;5070914;28;20402;-74
2022/06/01 06:54:23;;;;;;;31.70;19.50;;;;;;;36.05;46.98;100984.75;5052788;28;20546;-74
2022/06/01 06:56:49;;;;;;;31.10;21.40;;;;;;;36.25;45.77;101002.56;5070997;28;20449;-73
2022/06/01 06:59:16;;;;;;;37.73;21.03;;;;;;;36.21;46.18;101000.72;5053829;28;20417;-74
2022/06/01 07:01:43;;;;;;;24.97;16.63;;;;;;;36.45;45.18;101006.09;5053636;28;20464;-74
2022/06/01 07:04:09;;;;;;;37.10;19.97;;;;;;;36.45;45.28;101003.41;5054156;28;20896;-74
2022/06/01 07:06:36;;;;;;;27.23;18.87;;;;;;;36.40;45.25;101007.00;5054022;28;20627;-74
2022/06/01 07:09:03;;;;;;;28.07;19.90;;;;;;;36.32;45.61;101008.41;5054105;28;20814;-74
2022/06/01 07:11:31;;;;;;;30.03;21.30;;;;;;;36.38;45.25;101011.84;5072316;28;20437;-71
2022/06/01 07:13:58;;;;;;;20.90;16.50;;;;;;;36.34;45.84;101018.94;5054244;28;20418;-74
2022/06/01 07:16:30;;;;;;;28.27;18.17;;;;;;;36.52;45.56;101018.19;5053985;28;20445;-74
2022/06/01 07:19:01;;;;;;;34.03;19.83;;;;;;;36.58;45.18;101019.69;5050738;28;20506;-73
2022/06/01 07:21:31;;;;;;;30.60;19.20;;;;;;;36.71;45.05;101025.44;5053903;28;20421;-74
2022/06/01 07:23:57;;;;;;;33.23;20.13;;;;;;;36.56;45.55;101034.59;5056565;28;20930;-74
2022/06/01 07:26:32;;;;;;;27.67;18.07;;;;;;;36.42;45.72;101034.53;5053851;28;20445;-72
2022/06/01 07:28:58;;;;;;;24.97;22.70;;;;;;;36.50;45.68;101041.97;5037716;28;20824;-74
2022/06/01 07:31:25;;;;;;;36.67;22.83;;;;;;;36.76;45.11;101047.00;5052787;28;20441;-75
2022/06/01 07:33:53;;;;;;;24.60;20.60;;;;;;;36.90;44.51;101050.59;5071377;28;20843;-74
2022/06/01 07:36:20;;;;;;;38.93;23.90;;;;;;;36.97;44.83;101048.34;5053523;28;21006;-73
2022/06/01 07:43:05;;;;;;;34.27;19.47;;;;;;;36.85;44.96;101062.28;5069208;28;20401;-73
2022/06/01 07:44:42;;;;;;;25.40;18.70;;;;;;;36.81;44.47;101069.34;5070329;28;20421;-73
2022/06/01 07:47:09;;;;;;;35.60;22.43;;;;;;;36.68;44.93;101070.09;5050862;28;20442;-73
2022/06/01 07:49:36;;;;;;;34.77;22.97;;;;;;;36.59;45.13;101083.47;5053199;28;20802;-79
2022/06/01 07:52:13;;;;;;;29.87;21.10;;;;;;;36.66;44.83;101082.31;5053446;28;20460;-73
2022/06/01 07:54:41;;;;;;;31.43;23.87;;;;;;;36.57;45.11;101096.44;5053742;28;20443;-71
2022/06/01 07:57:08;;;;;;;34.87;22.83;;;;;;;36.53;45.30;101106.25;5071707;28;20409;-72
2022/06/01 07:59:34;;;;;;;47.53;30.43;;;;;;;36.60;45.21;101103.19;5056490;28;20445;-71
2022/06/01 08:02:05;;;;;;;42.83;24.97;;;;;;;36.71;44.82;101101.13;5075113;28;21014;-72
2022/06/01 08:04:32;;;;;;;36.73;26.90;;;;;;;36.89;44.59;101097.66;5057602;28;20425;-73
2022/06/01 08:06:58;;;;;;;35.37;24.40;;;;;;;37.02;44.12;101107.75;5075001;28;20472;-74
2022/06/01 08:09:24;;;;;;;33.70;23.47;;;;;;;36.95;44.33;101106.50;5057181;28;20413;-74
2022/06/01 08:14:35;;;;;;;32.57;22.10;;;;;;;36.83;44.46;101112.31;5075465;28;20385;-70
2022/06/01 08:17:02;;;;;;;48.10;22.83;;;;;;;36.84;44.75;101113.94;5057265;28;20879;-72
2022/06/01 08:19:28;;;;;;;39.57;20.67;;;;;;;36.83;44.08;101104.19;5057352;28;20912;-71
2022/06/01 08:21:54;;;;;;;26.30;17.40;;;;;;;36.85;44.05;101104.72;5057108;28;20947;-72
2022/06/01 08:24:20;;;;;;;33.20;22.13;;;;;;;36.95;44.40;101101.88;5057610;28;20421;-71
2022/06/01 08:26:46;;;;;;;39.60;21.40;;;;;;;37.00;44.18;101107.22;5074752;28;20460;-69
2022/06/01 08:29:12;;;;;;;27.57;20.17;;;;;;;37.03;43.93;101103.13;5074781;28;20428;-73
2022/06/01 08:31:38;;;;;;;36.80;22.13;;;;;;;37.04;43.92;101102.84;5056735;28;20420;-72
2022/06/01 08:34:05;;;;;;;31.40;17.27;;;;;;;37.13;43.80;101111.06;5056442;28;20465;-73
2022/06/01 08:36:32;;;;;;;35.03;19.10;;;;;;;37.22;43.78;101113.94;5056658;28;20429;-73
2022/06/01 08:38:58;;;;;;;21.13;18.43;;;;;;;37.29;43.37;101106.25;5056188;28;20457;-73
2022/06/01 08:41:32;;;;;;;23.43;18.47;;;;;;;37.31;43.62;101107.53;5053870;28;20424;-71
2022/06/01 08:44:03;;;;;;;32.13;23.87;;;;;;;37.35;43.87;101111.28;5056476;28;20452;-71
2022/06/01 08:46:32;;;;;;;33.67;20.73;;;;;;;37.45;43.33;101098.72;5071075;28;20631;-71
2022/06/01 08:49:14;;;;;;;33.10;17.17;;;;;;;37.47;43.27;101105.41;5056873;28;20467;-71
2022/06/01 08:51:40;;;;;;;35.57;20.30;;;;;;;37.42;43.58;101102.00;5074502;28;20409;-69
2022/06/01 08:54:06;;;;;;;26.63;17.20;;;;;;;37.36;43.72;101098.56;5036671;28;20442;-71
2022/06/01 08:56:37;;;;;;;23.70;15.43;;;;;;;37.27;44.26;101097.63;5039060;28;20418;-70
2022/06/01 08:59:06;;;;;;;28.13;14.83;;;;;;;37.26;44.16;101098.69;5056329;28;20475;-68
2022/06/01 09:02:05;;;;;;;29.50;15.50;;;;;;;37.29;44.52;101096.22;5056406;28;20460;-70
2022/06/01 09:04:57;;;;;;;24.00;14.43;;;;;;;37.37;43.58;101097.47;5056680;28;20421;-70
2022/06/01 09:07:26;;;;;;;23.87;14.50;;;;;;;37.46;43.96;101092.19;5056483;28;20449;-72
2022/06/01 09:10:04;;;;;;;25.20;15.23;;;;;;;37.50;43.59;101093.97;5055197;28;20860;-70
2022/06/01 09:12:33;;;;;;;28.47;14.53;;;;;;;37.48;43.68;101084.56;5074880;28;20407;-71
2022/06/01 09:15:17;;;;;;;30.23;14.33;;;;;;;37.48;43.79;101093.47;5057239;28;20401;-71
2022/06/01 09:17:44;;;;;;;29.13;17.93;;;;;;;37.54;43.71;101097.72;5023142;28;20410;-72
2022/06/01 09:23:02;;;;;;;23.07;15.23;;;;;;;37.52;43.78;101099.91;5074865;28;20424;-71
2022/06/01 09:25:34;;;;;;;15.27;12.33;;;;;;;37.54;43.96;101102.31;5074880;28;20493;-72
2022/06/01 09:28:05;;;;;;;24.07;13.50;;;;;;;37.55;44.08;101103.91;5056629;28;20943;-71
2022/06/01 09:30:42;;;;;;;34.00;19.10;;;;;;;37.62;43.61;101099.72;5039269;28;20449;-71
2022/06/01 09:33:35;;;;;;;26.87;15.93;;;;;;;37.58;43.85;101103.34;5054867;28;20418;-70
2022/06/01 09:36:08;;;;;;;29.60;18.47;;;;;;;37.47;44.35;101108.13;5055892;28;20420;-70
2022/06/01 09:38:37;;;;;;;37.60;16.30;;;;;;;37.52;44.02;101118.06;5056028;28;20417;-70
2022/06/01 09:41:07;;;;;;;31.60;18.97;;;;;;;37.53;44.14;101111.53;5073906;28;20487;-69
2022/06/01 09:43:33;;;;;;;27.20;17.40;;;;;;;37.48;43.63;101120.53;5073944;28;20475;-71
2022/06/01 09:46:00;;;;;;;28.00;16.00;;;;;;;37.43;44.19;101117.94;5055787;28;20449;-71
2022/06/01 09:48:39;;;;;;;27.30;17.90;;;;;;;37.33;44.45;101113.47;5039499;28;20476;-71
2022/06/01 09:51:08;;;;;;;25.90;15.53;;;;;;;37.37;44.66;101113.69;5070785;28;20418;-71
2022/06/01 09:54:06;;;;;;;24.77;16.10;;;;;;;37.51;44.33;101113.75;5058692;28;20489;-71
2022/06/01 09:56:40;;;;;;;23.53;17.27;;;;;;;37.53;44.37;101098.81;5080850;28;20418;-71
2022/06/01 10:07:46;;;;;;;27.80;20.77;;;;;;;37.37;44.44;101092.84;5073191;28;20967;-71
2022/06/01 10:10:23;;;;;;;35.17;21.97;;;;;;;37.30;44.58;101099.72;5074327;28;20390;-72
2022/06/01 10:12:56;;;;;;;29.77;18.43;;;;;;;37.21;45.40;101101.50;5055544;28;20444;-73
2022/06/01 10:15:51;;;;;;;32.43;21.87;;;;;;;37.07;45.46;101104.13;5055745;28;20410;-71
2022/06/01 10:18:22;;;;;;;26.87;15.70;;;;;;;37.31;44.94;101087.78;5051181;28;20434;-71
2022/06/01 10:20:56;;;;;;;24.80;16.57;;;;;;;37.51;44.45;101086.69;5055974;28;20780;-71
2022/06/01 10:23:30;;;;;;;29.73;17.93;;;;;;;37.41;44.48;101087.66;5055689;28;20420;-71
2022/06/01 10:26:03;;;;;;;52.87;25.87;;;;;;;37.43;44.69;101085.44;5055057;28;20465;-71
2022/06/01 10:28:43;;;;;;;56.60;21.43;;;;;;;37.38;44.93;101082.81;5055036;28;20788;-71
2022/06/01 10:31:19;;;;;;;30.90;18.90;;;;;;;37.68;44.35;101080.69;5055546;28;20444;-71
2022/06/01 10:33:49;;;;;;;29.97;21.23;;;;;;;37.89;43.51;101085.47;5073487;28;20461;-71
2022/06/01 10:36:58;;;;;;;21.63;11.90;;;;;;;38.04;43.35;101078.13;5055430;28;20437;-71
2022/06/01 10:39:39;;;;;;;20.13;11.10;;;;;;;38.01;43.13;101079.53;5055631;28;20971;-71
2022/06/01 10:42:10;;;;;;;22.57;14.23;;;;;;;38.09;43.13;101078.81;5055280;28;20410;-71
2022/06/01 10:44:46;;;;;;;19.37;12.73;;;;;;;38.20;42.81;101081.34;5055599;28;20441;-71
2022/06/01 10:47:33;;;;;;;30.83;17.43;;;;;;;38.09;42.95;101076.13;5073394;28;20437;-71
2022/06/01 10:50:22;;;;;;;18.07;12.03;;;;;;;38.16;42.51;101076.50;5054997;28;20853;-69
2022/06/01 10:53:05;;;;;;;30.27;18.63;;;;;;;38.36;42.51;101071.78;5053037;28;20426;-74
2022/06/01 10:55:43;;;;;;;27.73;16.80;;;;;;;38.31;43.16;101069.22;5052918;28;20433;-74
2022/06/01 10:58:19;;;;;;;23.83;14.70;;;;;;;38.40;42.50;101070.88;5072678;28;20409;-71
2022/06/01 11:01:03;;;;;;;20.43;11.47;;;;;;;38.43;42.31;101066.78;5039436;28;20458;-71
2022/06/01 11:03:47;;;;;;;27.80;11.80;;;;;;;38.43;42.27;101066.78;5054726;28;20491;-71
2022/06/01 11:06:26;;;;;;;24.23;11.13;;;;;;;38.46;42.45;101063.44;5054578;28;20882;-71
2022/06/01 11:08:58;;;;;;;17.63;13.37;;;;;;;38.42;42.30;101059.72;5054902;28;20445;-71
2022/06/01 11:11:43;;;;;;;15.83;9.60;;;;;;;38.49;42.30;101057.44;5054630;28;20468;-71
2022/06/01 11:14:23;;;;;;;27.97;11.50;;;;;;;38.48;42.31;101052.28;5054547;28;20398;-71
2022/06/01 11:16:59;;;;;;;19.17;11.20;;;;;;;38.47;42.40;101058.81;5078289;28;20475;-71
2022/06/01 11:19:53;;;;;;;19.37;10.83;;;;;;;38.41;42.44;101050.00;5062032;28;20451;-71
2022/06/01 11:22:28;;;;;;;21.43;15.70;;;;;;;38.38;42.58;101054.13;5062769;28;20421;-71
2022/06/01 11:25:16;;;;;;;22.27;13.30;;;;;;;38.21;42.89;101053.94;5061123;28;20475;-72
2022/06/01 11:28:00;;;;;;;25.03;15.00;;;;;;;38.33;42.43;101048.81;5063137;28;20987;-72
2022/06/01 11:30:50;;;;;;;15.43;10.27;;;;;;;38.31;42.95;101036.69;5059128;28;20418;-72
2022/06/01 11:33:33;;;;;;;20.90;11.40;;;;;;;38.35;42.82;101034.97;5050735;28;20555;-72
2022/06/01 11:36:25;;;;;;;22.13;12.00;;;;;;;38.28;42.80;101031.88;5051096;28;20461;-72
2022/06/01 11:39:17;;;;;;;18.80;11.80;;;;;;;38.27;43.45;101031.06;5058290;28;20979;-72
2022/06/01 11:42:02;;;;;;;17.67;12.17;;;;;;;38.37;43.09;101032.78;5037544;28;20454;-72
2022/06/01 11:44:37;;;;;;;17.20;9.67;;;;;;;38.26;42.97;101034.06;5056059;28;20423;-71
2022/06/01 11:47:03;;;;;;;15.20;7.90;;;;;;;38.35;42.77;101029.53;5061100;28;20983;-74
2022/06/01 11:50:14;;;;;;;17.90;9.20;;;;;;;38.53;42.39;101020.44;5060073;28;20446;-72
2022/06/01 11:52:59;;;;;;;19.37;10.00;;;;;;;38.57;42.43;101020.66;5043664;28;20418;-74
2022/06/01 11:55:34;;;;;;;17.83;9.43;;;;;;;38.62;42.07;101023.25;5056027;28;20612;-70
2022/06/01 11:58:03;;;;;;;24.03;8.50;;;;;;;38.71;42.03;101026.81;5050989;28;20450;-72